Ballarat, California
Current Conditions -  °F | °C
As of 2:55 AM on Monday 22 Dec 2014 (Local Time) from KBYS Reporting Station
Clear Clear  
Wind Chill: 45°   Ceiling: Unl
Heat Index: 49°   Visibility: 10mi
Dew Point: 39°   Wind: 9mph
Humidity: 70%   Direction: 360°N
Pressure: 30.12"   Gusts: NA
Location:  35.6496°N, 117.375°W
Report Text: KBYS 221055Z AUTO 36008KT 10SM CLR 09/04 A3012 RMK AO2 SLP210 T00940041 $
Loading
Personal Weather Stations






























Interactive Weather Map New forecast layout! Learn more

10-Day Weather Forecast

Advertisements
Track Severe Weather on mobile